This is the latest recevied weather packets stored in our database for station/object KA3BQE-13. If no packets are shown the sender has not sent any weather packets the latest 1 day(s).
| Time | Temp. | Humidity | Pressure | Rain* | Wind** | Luminosity | Snow |
|---|---|---|---|---|---|---|---|
| 1836274707 | 18.89° C | 87% | 1018.8 hPa | 0 mm | 0 m/s | 0 W/m² | - |
| 1836274560 | 19.44° C | 85% | 1019 hPa | 0 mm | 0.45 m/s, 16° | 0 W/m² | - |
| 1836274406 | 18.89° C | 87% | 1019.1 hPa | 0 mm | 0.45 m/s, 2° | 0 W/m² | - |
| 1836274259 | 18.89° C | 87% | 1018.9 hPa | 0 mm | 0 m/s | 0 W/m² | - |
| 1836274103 | 19.44° C | 86% | 1018.9 hPa | 0 mm | 0 m/s | 0 W/m² | - |
| 1778060653 | 3.33° C | 98% | 1012.8 hPa | 0 mm | 0 m/s | 0 W/m² | - |
| 1778060350 | 3.33° C | 98% | 1012.6 hPa | 0 mm | 0.89 m/s, 27° | 0 W/m² | - |
| 1778060048 | 3.33° C | 98% | 1012.6 hPa | 0 mm | 0 m/s | 0 W/m² | - |
| 1778059745 | 3.33° C | 98% | 1012.5 hPa | 0 mm | 0 m/s | 0 W/m² | - |
| 1778059443 | 3.33° C | 98% | 1012.1 hPa | 0 mm | 0 m/s | 0 W/m² | - |
| 1778059139 | 3.89° C | 98% | 1012.3 hPa | 0 mm | 0 m/s | 0 W/m² | - |
| 1778058837 | 3.89° C | 98% | 1012.4 hPa | 0 mm | 0 m/s | 0 W/m² | - |
| 1778058534 | 3.89° C | 98% | 1012.5 hPa | 0 mm | 0.45 m/s, 359° | 0 W/m² | - |
| 1778058232 | 4.44° C | 98% | 1012.6 hPa | 0 mm | 0.45 m/s, 25° | 0 W/m² | - |
| 1778057929 | 4.44° C | 98% | 1012.9 hPa | 0 mm | 0.89 m/s, 19° | 0 W/m² | - |
| 1778057625 | 4.44° C | 98% | 1013 hPa | 0 mm | 0 m/s | 0 W/m² | - |
| 1778057321 | 4.44° C | 98% | 1012.8 hPa | 0 mm | 0 m/s | 0 W/m² | - |
| 1778057018 | 4.44° C | 98% | 1013.1 hPa | 0 mm | 0 m/s | 0 W/m² | - |
| 1778056715 | 4.44° C | 98% | 1013 hPa | 0 mm | 0 m/s | 0 W/m² | - |
| 1778056412 | 4.44° C | 97% | 1012.9 hPa | 0 mm | 0 m/s | 0 W/m² | - |
| 1778056109 | 4.44° C | 97% | 1012.7 hPa | 0 mm | 0 m/s | 0 W/m² | - |
| 1778055817 | 4.44° C | 97% | 1012.6 hPa | 0 mm | 0 m/s | 0 W/m² | - |
| 1778055502 | 4.44° C | 97% | 1012.8 hPa | 0 mm | 0.45 m/s, 16° | 0 W/m² | - |
| 1778055201 | 5° C | 97% | 1012.7 hPa | 0 mm | 0 m/s | 0 W/m² | - |
| 1778054898 | 5° C | 97% | 1012.5 hPa | 0 mm | 0 m/s | 0 W/m² | - |
* Rain latest hour (hover to see other rain measurements)
** Current wind speed in m/s (hover to see current wind gust speed)